createdAt,value
2019-06-10T00:01:31.483Z,2.60
2019-06-10T00:04:04.749Z,2.57
2019-06-10T00:06:31.416Z,2.70
2019-06-10T00:09:03.108Z,2.60
2019-06-10T00:11:31.485Z,2.87
2019-06-10T00:14:02.454Z,2.50
2019-06-10T00:16:32.324Z,2.63
2019-06-10T00:19:05.482Z,2.60
2019-06-10T00:21:32.520Z,2.47
2019-06-10T00:24:02.605Z,2.40
2019-06-10T00:26:32.634Z,4.30
2019-06-10T00:29:03.130Z,2.50
2019-06-10T00:31:32.619Z,2.67
2019-06-10T00:34:03.378Z,2.53
2019-06-10T00:36:32.526Z,2.77
2019-06-10T00:39:03.486Z,2.57
2019-06-10T00:41:32.240Z,2.53
2019-06-10T00:44:03.772Z,2.50
2019-06-10T00:46:33.099Z,2.63
2019-06-10T00:49:05.587Z,2.60
2019-06-10T00:51:33.140Z,2.43
2019-06-10T00:54:04.936Z,3.57
2019-06-10T00:56:33.301Z,3.47
2019-06-10T00:59:04.137Z,2.70
2019-06-10T01:01:33.237Z,2.97
2019-06-10T01:04:03.778Z,2.77
2019-06-10T01:06:33.593Z,2.77
2019-06-10T01:09:06.743Z,2.43
2019-06-10T01:11:35.795Z,2.87
2019-06-10T01:14:05.230Z,2.80
2019-06-10T01:16:34.365Z,3.23
2019-06-10T01:19:03.778Z,2.73
2019-06-10T01:21:32.942Z,2.73
2019-06-10T01:24:02.301Z,2.40
2019-06-10T01:26:31.600Z,3.10
2019-06-10T01:29:00.980Z,2.57
2019-06-10T01:31:31.788Z,2.60
2019-06-10T01:34:00.841Z,2.87
2019-06-10T01:36:31.362Z,2.40
2019-06-10T01:39:01.547Z,2.53
2019-06-10T01:41:30.796Z,4.73
2019-06-10T01:44:01.718Z,2.50
2019-06-10T01:46:31.657Z,2.60
2019-06-10T01:49:00.849Z,2.90
2019-06-10T01:51:31.695Z,2.63
2019-06-10T01:54:01.353Z,2.60
2019-06-10T01:56:31.448Z,2.43
2019-06-10T01:59:01.494Z,2.73
2019-06-10T02:01:43.447Z,2.30
2019-06-10T02:04:14.880Z,2.57
2019-06-10T02:06:43.308Z,2.83
2019-06-10T02:09:15.055Z,2.50
2019-06-10T02:11:43.099Z,2.50
2019-06-10T02:14:15.005Z,2.63
2019-06-10T02:16:43.077Z,2.60
2019-06-10T02:19:14.200Z,2.60
2019-06-10T02:21:42.994Z,2.70
2019-06-10T02:24:14.370Z,2.70
2019-06-10T02:26:42.786Z,2.40
2019-06-10T02:29:13.147Z,2.43
2019-06-10T02:31:43.469Z,2.80
2019-06-10T02:34:17.627Z,2.50
2019-06-10T02:36:44.625Z,2.73
2019-06-10T02:39:20.148Z,2.43
2019-06-10T02:41:45.008Z,2.30
2019-06-10T02:44:18.559Z,2.63
2019-06-10T02:46:44.870Z,2.70
2019-06-10T02:49:29.670Z,2.70
2019-06-10T02:51:44.699Z,2.63
2019-06-10T02:54:16.406Z,2.90
2019-06-10T02:56:44.584Z,2.70
2019-06-10T02:59:13.627Z,6.23
2019-06-10T03:01:43.945Z,5.57
2019-06-10T03:04:13.925Z,4.77
2019-06-10T03:06:44.950Z,4.00
2019-06-10T03:09:14.389Z,3.97
2019-06-10T03:11:44.781Z,4.03
2019-06-10T03:14:13.676Z,4.90
2019-06-10T03:16:46.408Z,4.60
2019-06-10T03:19:15.873Z,4.63
2019-06-10T03:21:44.388Z,5.00
2019-06-10T03:24:13.337Z,5.33
2019-06-10T03:26:42.835Z,5.00
2019-06-10T03:29:12.954Z,4.80
2019-06-10T03:31:47.265Z,4.60
2019-06-10T03:34:14.899Z,5.57
2019-06-10T03:36:42.962Z,5.03
2019-06-10T03:39:13.305Z,5.10
2019-06-10T03:41:42.365Z,5.10
2019-06-10T03:44:12.981Z,5.30
2019-06-10T03:46:43.092Z,4.33
2019-06-10T03:49:12.702Z,5.20
2019-06-10T03:51:42.901Z,4.83
2019-06-10T03:54:13.111Z,4.40
2019-06-10T03:56:43.015Z,5.63
2019-06-10T03:59:12.244Z,5.03
2019-06-10T04:01:42.662Z,4.90
2019-06-10T04:04:13.004Z,5.07
2019-06-10T04:06:44.238Z,7.00
2019-06-10T04:09:12.136Z,6.67
2019-06-10T04:11:43.056Z,7.47
2019-06-10T04:14:13.071Z,5.93
2019-06-10T04:16:43.351Z,6.47
2019-06-10T04:19:13.243Z,6.13
2019-06-10T04:21:43.277Z,6.30
2019-06-10T04:24:12.823Z,6.20
2019-06-10T04:26:43.564Z,6.57
2019-06-10T04:29:12.917Z,6.53
2019-06-10T04:31:42.554Z,6.73
2019-06-10T04:34:12.468Z,7.00
2019-06-10T04:36:42.301Z,7.37
2019-06-10T04:39:12.557Z,7.43
2019-06-10T04:41:42.637Z,7.50
2019-06-10T04:44:13.134Z,7.80
2019-06-10T04:46:42.814Z,8.03
2019-06-10T04:49:13.158Z,8.00
2019-06-10T04:51:43.550Z,7.87
2019-06-10T04:54:13.350Z,7.70
2019-06-10T04:56:42.825Z,7.37
2019-06-10T04:59:12.568Z,10.13
2019-06-10T05:01:42.627Z,7.17
2019-06-10T05:04:12.564Z,7.13
2019-06-10T05:06:42.169Z,7.37
2019-06-10T05:09:12.450Z,8.93
2019-06-10T05:11:43.030Z,7.93
2019-06-10T05:14:13.204Z,7.77
2019-06-10T05:16:43.204Z,9.37
2019-06-10T05:19:12.951Z,8.07
2019-06-10T05:21:42.540Z,8.00
2019-06-10T05:24:12.408Z,9.47
2019-06-10T05:26:42.511Z,8.10
2019-06-10T05:29:12.214Z,8.87
2019-06-10T05:31:43.595Z,8.87
2019-06-10T05:34:13.051Z,9.00
2019-06-10T05:36:43.562Z,7.93
2019-06-10T05:39:12.795Z,7.43
2019-06-10T05:41:43.261Z,7.63
2019-06-10T05:44:13.415Z,6.93
2019-06-10T05:46:43.475Z,7.23
2019-06-10T05:49:12.750Z,6.70
2019-06-10T05:51:42.469Z,6.80
2019-06-10T05:54:12.783Z,7.10
2019-06-10T05:56:43.253Z,6.50
2019-06-10T05:59:12.899Z,6.57
2019-06-10T06:01:43.107Z,6.50
2019-06-10T06:04:12.788Z,7.07
2019-06-10T06:06:44.924Z,5.83
2019-06-10T06:09:13.100Z,5.87
2019-06-10T06:11:43.093Z,6.00
2019-06-10T06:14:13.220Z,6.50
2019-06-10T06:16:43.523Z,6.13
2019-06-10T06:19:12.636Z,6.20
2019-06-10T06:21:46.640Z,5.80
2019-06-10T06:24:12.981Z,5.83
2019-06-10T06:26:43.131Z,5.67
2019-06-10T06:29:13.126Z,5.47
2019-06-10T06:31:43.070Z,5.00
2019-06-10T06:34:13.725Z,4.87
2019-06-10T06:36:43.247Z,4.93
2019-06-10T06:39:13.031Z,4.50
2019-06-10T06:41:42.874Z,4.93
2019-06-10T06:44:12.999Z,4.40
2019-06-10T06:46:43.058Z,4.87
2019-06-10T06:49:12.835Z,4.33
2019-06-10T06:51:54.054Z,4.60
2019-06-10T06:57:03.492Z,4.43
2019-06-10T06:59:33.870Z,4.73
2019-06-10T07:02:02.815Z,4.77
2019-06-10T07:04:34.215Z,5.43
2019-06-10T07:07:03.627Z,5.60
2019-06-10T07:09:36.160Z,4.67
2019-06-10T07:12:06.110Z,4.70
2019-06-10T07:14:37.582Z,4.47
2019-06-10T07:17:06.410Z,4.30
2019-06-10T07:19:39.154Z,4.53
2019-06-10T07:22:12.498Z,4.57
2019-06-10T07:24:39.260Z,5.63
2019-06-10T07:27:07.710Z,4.77
2019-06-10T07:29:38.563Z,4.33
2019-06-10T07:32:07.536Z,4.50
2019-06-10T07:34:38.871Z,4.03
2019-06-10T07:37:09.224Z,4.30
2019-06-10T07:39:39.511Z,4.43
2019-06-10T07:42:08.547Z,3.73
2019-06-10T07:44:37.635Z,4.40
2019-06-10T07:47:07.090Z,4.47
2019-06-10T07:49:37.198Z,4.37
2019-06-10T07:52:15.570Z,4.50
2019-06-10T07:54:37.566Z,4.00
2019-06-10T07:57:06.713Z,3.90
2019-06-10T07:59:35.723Z,4.13
2019-06-10T08:02:04.909Z,3.93
2019-06-10T08:04:35.207Z,4.43
2019-06-10T08:07:04.945Z,4.40
2019-06-10T08:09:35.636Z,4.40
2019-06-10T08:12:06.045Z,4.53
2019-06-10T08:14:35.427Z,3.63
2019-06-10T08:17:04.586Z,4.53
2019-06-10T08:19:37.675Z,4.40
2019-06-10T08:22:04.457Z,4.43
2019-06-10T08:24:33.467Z,4.03
2019-06-10T08:27:02.791Z,3.87
2019-06-10T08:29:33.209Z,3.90
2019-06-10T08:32:03.347Z,4.53
2019-06-10T08:34:33.337Z,4.30
2019-06-10T08:37:04.212Z,4.17
2019-06-10T08:39:33.670Z,4.43
2019-06-10T08:42:03.344Z,5.70
2019-06-10T08:44:32.869Z,4.90
2019-06-10T08:47:03.108Z,4.20
2019-06-10T08:49:32.953Z,4.60
2019-06-10T08:52:02.711Z,4.50
2019-06-10T08:54:32.394Z,4.30
2019-06-10T08:57:03.685Z,4.60
2019-06-10T08:59:32.683Z,4.50
2019-06-10T09:02:02.944Z,4.53
2019-06-10T09:04:34.645Z,5.10
2019-06-10T09:07:05.052Z,4.30
2019-06-10T09:09:34.404Z,5.00
2019-06-10T09:12:03.694Z,4.60
2019-06-10T09:14:32.865Z,4.43
2019-06-10T09:17:03.392Z,4.93
2019-06-10T09:19:33.179Z,4.77
2019-06-10T09:22:03.409Z,4.47
2019-06-10T09:24:32.871Z,5.00
2019-06-10T09:27:02.928Z,4.97
2019-06-10T09:29:32.880Z,4.40
2019-06-10T09:32:02.174Z,4.50
2019-06-10T09:34:33.095Z,4.60
2019-06-10T09:37:03.971Z,4.20
2019-06-10T09:39:32.876Z,4.90
2019-06-10T09:42:06.219Z,4.80
2019-06-10T09:44:33.424Z,4.43
2019-06-10T09:47:04.547Z,4.43
2019-06-10T09:49:33.975Z,5.03
2019-06-10T09:52:03.342Z,4.70
2019-06-10T09:54:33.560Z,4.90
2019-06-10T09:57:03.394Z,4.60
2019-06-10T09:59:33.452Z,4.83
2019-06-10T10:02:06.015Z,7.57
2019-06-10T10:04:34.048Z,4.70
2019-06-10T10:07:03.805Z,4.30
2019-06-10T10:09:36.866Z,4.93
2019-06-10T10:12:03.931Z,4.70
2019-06-10T10:14:33.639Z,4.63
2019-06-10T10:17:04.814Z,4.77
2019-06-10T10:19:33.538Z,4.83
2019-06-10T10:22:03.089Z,4.80
2019-06-10T10:24:34.081Z,4.50
2019-06-10T10:27:08.267Z,4.57
2019-06-10T10:29:33.256Z,4.30
2019-06-10T10:32:02.694Z,4.70
2019-06-10T10:34:33.344Z,4.90
2019-06-10T10:37:02.966Z,5.00
2019-06-10T10:39:32.724Z,4.67
2019-06-10T10:42:03.838Z,5.03
2019-06-10T10:44:33.099Z,4.87
2019-06-10T10:47:04.188Z,4.90
2019-06-10T10:49:33.459Z,5.13
2019-06-10T10:52:02.801Z,4.70
2019-06-10T10:54:35.997Z,4.90
2019-06-10T10:57:36.209Z,4.90
2019-06-10T11:00:03.209Z,4.63
2019-06-10T11:02:32.697Z,5.00
2019-06-10T11:05:02.281Z,5.83
2019-06-10T11:07:33.950Z,5.13
2019-06-10T11:10:03.904Z,5.07
2019-06-10T11:12:33.750Z,5.03
2019-06-10T11:15:05.070Z,5.07
2019-06-10T11:17:34.398Z,5.60
2019-06-10T11:20:07.562Z,5.23
2019-06-10T11:22:37.960Z,5.53
2019-06-10T11:25:07.292Z,5.67
2019-06-10T11:27:36.558Z,7.93
2019-06-10T11:30:06.665Z,5.60
2019-06-10T11:32:43.266Z,5.40
2019-06-10T11:35:38.259Z,6.20
2019-06-10T11:38:07.373Z,5.80
2019-06-10T11:40:36.418Z,6.63
2019-06-10T11:43:05.783Z,5.63
2019-06-10T11:45:35.110Z,5.50
2019-06-10T11:48:04.732Z,6.30
2019-06-10T11:50:34.022Z,6.53
2019-06-10T11:53:04.229Z,6.17
2019-06-10T11:55:33.646Z,5.67
2019-06-10T11:58:02.671Z,6.00
2019-06-10T12:00:33.271Z,8.60
2019-06-10T12:03:02.992Z,6.03
2019-06-10T12:05:32.880Z,7.07
2019-06-10T12:08:02.920Z,6.43
2019-06-10T12:10:33.040Z,5.67
2019-06-10T12:13:07.179Z,6.30
2019-06-10T12:16:12.637Z,6.20
2019-06-10T12:18:08.340Z,6.67
2019-06-10T12:20:35.066Z,5.50
2019-06-10T12:23:04.646Z,5.53
2019-06-10T12:25:39.238Z,5.53
2019-06-10T12:28:07.632Z,6.43
2019-06-10T12:30:35.934Z,6.10
2019-06-10T12:33:05.742Z,6.87
2019-06-10T12:35:34.957Z,6.13
2019-06-10T12:38:06.142Z,5.83
2019-06-10T12:40:34.897Z,5.53
2019-06-10T12:43:06.772Z,5.80
2019-06-10T12:45:39.177Z,5.80
2019-06-10T12:48:08.579Z,5.80
2019-06-10T12:50:37.805Z,5.57
2019-06-10T12:53:07.396Z,6.50
2019-06-10T12:55:43.059Z,6.30
2019-06-10T12:58:07.811Z,6.07
2019-06-10T13:00:46.173Z,6.43
2019-06-10T13:03:15.872Z,5.80
2019-06-10T13:05:45.296Z,6.00
2019-06-10T13:08:15.509Z,5.97
2019-06-10T13:10:45.734Z,5.87
2019-06-10T13:13:15.163Z,5.80
2019-06-10T13:15:44.209Z,5.87
2019-06-10T13:18:19.130Z,6.53
2019-06-10T13:20:45.299Z,6.10
2019-06-10T13:23:23.258Z,6.17
2019-06-10T13:25:54.519Z,7.20
2019-06-10T13:28:15.898Z,6.47
2019-06-10T13:30:44.965Z,5.90
2019-06-10T13:33:14.804Z,5.97
2019-06-10T13:35:50.072Z,6.10
2019-06-10T13:38:19.110Z,6.87
2019-06-10T13:40:48.218Z,6.87
2019-06-10T13:43:17.437Z,6.90
2019-06-10T13:45:46.579Z,6.90
2019-06-10T13:48:16.307Z,5.70
2019-06-10T13:50:45.938Z,6.90
2019-06-10T13:53:15.189Z,6.43
2019-06-10T13:55:52.804Z,6.30
2019-06-10T13:58:22.836Z,6.40
2019-06-10T14:00:53.614Z,8.77
2019-06-10T14:03:23.078Z,11.50
2019-06-10T14:05:57.656Z,8.30
2019-06-10T14:08:23.253Z,6.80
2019-06-10T14:10:54.152Z,6.20
2019-06-10T14:13:23.906Z,6.57
2019-06-10T14:15:54.076Z,6.67
2019-06-10T14:18:24.374Z,7.43
2019-06-10T14:20:53.580Z,6.23
2019-06-10T14:23:38.106Z,7.00
2019-06-10T14:26:08.383Z,7.37
2019-06-10T14:28:41.270Z,7.10
2019-06-10T14:31:38.223Z,7.33
2019-06-10T14:33:55.267Z,7.03
2019-06-10T14:36:24.810Z,7.47
2019-06-10T14:38:54.176Z,7.40
2019-06-10T14:44:53.606Z,7.83
2019-06-10T14:47:23.187Z,6.90
2019-06-10T14:49:53.004Z,6.67
2019-06-10T14:52:22.800Z,6.20
2019-06-10T14:54:53.234Z,6.70
2019-06-10T14:57:23.073Z,6.53
2019-06-10T14:59:53.175Z,6.30
2019-06-10T15:02:22.541Z,8.13
2019-06-10T15:04:53.230Z,6.70
2019-06-10T15:07:23.667Z,7.20
2019-06-10T15:09:53.293Z,6.63
2019-06-10T15:12:22.896Z,7.30
2019-06-10T15:14:52.258Z,6.80
2019-06-10T15:17:21.421Z,7.00
2019-06-10T15:19:52.908Z,6.70
2019-06-10T15:22:23.649Z,6.20
2019-06-10T15:24:53.258Z,6.73
2019-06-10T15:27:29.882Z,7.00
2019-06-10T15:29:53.291Z,7.30
2019-06-10T15:32:33.867Z,6.90
2019-06-10T15:34:53.045Z,7.07
2019-06-10T15:37:24.111Z,7.33
2019-06-10T15:39:53.364Z,7.30
2019-06-10T15:42:22.637Z,6.93
2019-06-10T15:44:55.235Z,7.33
2019-06-10T15:47:26.242Z,6.93
2019-06-10T15:49:53.394Z,7.53
2019-06-10T15:52:25.081Z,6.70
2019-06-10T15:54:54.496Z,6.70
2019-06-10T15:57:38.959Z,9.63
2019-06-10T15:59:54.339Z,6.50
2019-06-10T16:02:25.553Z,6.93
2019-06-10T16:05:00.421Z,6.90
2019-06-10T16:07:32.554Z,6.47
2019-06-10T16:10:27.636Z,6.70
2019-06-10T16:13:16.391Z,7.13
2019-06-10T16:15:47.972Z,6.77
2019-06-10T16:18:26.049Z,6.97
2019-06-10T16:21:04.379Z,6.67
2019-06-10T16:29:37.838Z,6.87
2019-06-10T16:30:42.786Z,7.50
2019-06-10T16:33:13.098Z,7.37
2019-06-10T16:35:42.868Z,6.63
2019-06-10T16:38:22.514Z,70.80
2019-06-10T16:40:53.713Z,10.50
2019-06-10T16:43:24.462Z,9.53
2019-06-10T16:45:53.468Z,8.80
2019-06-10T16:48:25.530Z,9.73
2019-06-10T16:51:03.230Z,9.53
2019-06-10T16:53:35.727Z,9.10
2019-06-10T16:56:03.839Z,10.13
2019-06-10T16:58:33.932Z,9.50
2019-06-10T17:01:04.300Z,8.33
2019-06-10T17:03:34.068Z,8.00
2019-06-10T17:06:03.150Z,8.87
2019-06-10T17:08:33.525Z,8.07
2019-06-10T17:11:03.502Z,7.97
2019-06-10T17:13:32.896Z,8.00
2019-06-10T17:16:03.485Z,7.83
2019-06-10T17:18:33.665Z,8.07
2019-06-10T17:21:04.127Z,8.37
2019-06-10T17:23:36.466Z,8.00
2019-06-10T17:26:04.444Z,8.07
2019-06-10T17:28:36.624Z,8.07
2019-06-10T17:31:04.411Z,7.90
2019-06-10T17:33:35.714Z,8.57
2019-06-10T17:36:04.407Z,7.73
2019-06-10T17:38:33.469Z,7.83
2019-06-10T17:41:03.069Z,8.67
2019-06-10T17:43:34.205Z,8.60
2019-06-10T17:46:03.621Z,8.50
2019-06-10T17:48:33.763Z,8.97
2019-06-10T17:51:03.097Z,8.43
2019-06-10T17:53:34.903Z,8.67
2019-06-10T17:56:03.762Z,9.43
2019-06-10T17:58:47.599Z,9.33
2019-06-10T18:01:03.890Z,9.63
2019-06-10T18:03:33.401Z,8.83
2019-06-10T18:06:02.942Z,9.57
2019-06-10T18:08:34.920Z,8.20
2019-06-10T18:11:03.217Z,9.07
2019-06-10T18:13:34.302Z,12.03
2019-06-10T18:16:03.571Z,12.07
2019-06-10T18:18:35.639Z,17.53
2019-06-10T18:21:03.946Z,10.47
2019-06-10T18:23:33.275Z,8.97
2019-06-10T18:26:03.256Z,9.10
2019-06-10T18:28:45.632Z,13.17
2019-06-10T18:31:03.563Z,10.63
2019-06-10T18:33:36.229Z,10.13
2019-06-10T18:36:03.413Z,11.47
2019-06-10T18:38:34.277Z,10.07
2019-06-10T18:41:03.445Z,11.50
2019-06-10T18:43:35.094Z,7.73
2019-06-10T18:46:03.819Z,8.53
2019-06-10T18:48:36.155Z,9.90
2019-06-10T18:51:04.052Z,8.77
2019-06-10T18:53:34.796Z,9.30
2019-06-10T18:56:04.158Z,8.30
2019-06-10T18:58:35.967Z,9.23
2019-06-10T19:01:07.743Z,8.07
2019-06-10T19:03:38.261Z,8.53
2019-06-10T19:06:12.706Z,8.40
2019-06-10T19:08:44.329Z,8.33
2019-06-10T19:11:13.516Z,9.13
2019-06-10T19:13:43.701Z,9.10
2019-06-10T19:16:13.110Z,9.17
2019-06-10T19:18:43.282Z,8.43
2019-06-10T19:21:13.024Z,9.40
2019-06-10T19:23:43.945Z,8.97
2019-06-10T19:26:13.604Z,9.27
2019-06-10T19:28:45.170Z,9.13
2019-06-10T19:31:13.954Z,9.50
2019-06-10T19:33:45.070Z,9.33
2019-06-10T19:36:13.845Z,8.50
2019-06-10T19:38:44.396Z,8.83
2019-06-10T19:41:13.587Z,9.23
2019-06-10T19:43:45.299Z,12.40
2019-06-10T19:46:13.492Z,10.77
2019-06-10T19:48:55.492Z,9.97
2019-06-10T19:51:13.518Z,10.37
2019-06-10T19:53:45.546Z,9.90
2019-06-10T19:56:14.602Z,10.17
2019-06-10T19:58:46.359Z,10.73
2019-06-10T20:01:14.366Z,10.53
2019-06-10T20:03:46.446Z,9.90
2019-06-10T20:06:14.356Z,10.40
2019-06-10T20:08:52.246Z,37.60
2019-06-10T20:11:22.930Z,12.90
2019-06-10T20:13:53.118Z,11.47
2019-06-10T20:16:22.400Z,10.70
2019-06-10T20:18:53.592Z,11.20
2019-06-10T20:21:22.787Z,11.13
2019-06-10T20:23:53.046Z,10.57
2019-06-10T20:26:22.662Z,11.47
2019-06-10T20:28:54.895Z,11.17
2019-06-10T20:31:22.914Z,11.03
2019-06-10T20:33:52.419Z,11.27
2019-06-10T20:36:26.346Z,11.20
2019-06-10T20:38:53.479Z,11.53
2019-06-10T20:41:22.864Z,11.13
2019-06-10T20:43:52.603Z,10.77
2019-06-10T20:46:23.582Z,11.07
2019-06-10T20:48:54.534Z,10.17
2019-06-10T20:51:27.083Z,11.67
2019-06-10T20:53:58.920Z,10.73
2019-06-10T20:56:28.250Z,11.13
2019-06-10T20:59:02.856Z,10.73
2019-06-10T21:01:33.193Z,11.30
2019-06-10T21:04:03.960Z,11.73
2019-06-10T21:06:34.920Z,11.53
2019-06-10T21:09:06.011Z,11.23
2019-06-10T21:11:35.174Z,11.87
2019-06-10T21:14:04.636Z,11.27
2019-06-10T21:16:33.865Z,12.33
2019-06-10T21:19:03.286Z,12.40
2019-06-10T21:21:32.717Z,11.47
2019-06-10T21:24:02.241Z,11.37
2019-06-10T21:26:32.569Z,12.67
2019-06-10T21:29:03.820Z,13.47
2019-06-10T21:31:33.023Z,13.17
2019-06-10T21:34:02.921Z,13.17
2019-06-10T21:36:32.923Z,13.73
2019-06-10T21:39:02.814Z,12.90
2019-06-10T21:41:32.048Z,13.67
2019-06-10T21:44:03.149Z,13.50
2019-06-10T21:46:32.618Z,12.90
2019-06-10T21:49:01.797Z,12.97
2019-06-10T21:51:32.322Z,13.13
2019-06-10T21:54:03.018Z,13.43
2019-06-10T21:56:32.781Z,13.50
2019-06-10T21:59:02.503Z,13.37
2019-06-10T22:01:32.580Z,12.50
2019-06-10T22:04:04.702Z,14.30
2019-06-10T22:06:33.094Z,14.00
2019-06-10T22:09:03.958Z,13.67
2019-06-10T22:11:33.335Z,13.00
2019-06-10T22:14:02.893Z,14.03
2019-06-10T22:16:32.939Z,14.07
2019-06-10T22:19:03.323Z,13.87
2019-06-10T22:21:33.046Z,15.47
2019-06-10T22:24:02.363Z,15.33
2019-06-10T22:26:32.236Z,16.03
2019-06-10T22:29:01.379Z,15.27
2019-06-10T22:31:32.509Z,16.67
2019-06-10T22:34:03.220Z,15.13
2019-06-10T22:36:32.673Z,16.93
2019-06-10T22:39:03.204Z,16.07
2019-06-10T22:41:32.528Z,16.23
2019-06-10T22:44:03.513Z,16.33
2019-06-10T22:46:32.427Z,17.40
2019-06-10T22:49:03.005Z,16.50
2019-06-10T22:51:32.958Z,18.17
2019-06-10T22:54:03.580Z,17.30
2019-06-10T22:56:33.120Z,17.93
2019-06-10T22:59:03.348Z,19.97
2019-06-10T23:01:38.014Z,19.33
2019-06-10T23:04:04.001Z,21.93
2019-06-10T23:06:33.996Z,21.00
2019-06-10T23:09:04.287Z,18.97
2019-06-10T23:11:33.416Z,22.23
2019-06-10T23:14:03.249Z,20.03
2019-06-10T23:16:32.471Z,18.80
2019-06-10T23:19:04.161Z,21.00
2019-06-10T23:21:33.108Z,19.47
2019-06-10T23:24:03.219Z,16.87
2019-06-10T23:26:33.230Z,18.83
2019-06-10T23:29:12.277Z,18.27
2019-06-10T23:31:51.710Z,23.63
2019-06-10T23:34:15.997Z,22.10
2019-06-10T23:36:43.208Z,22.03
2019-06-10T23:39:13.166Z,25.20
2019-06-10T23:41:43.353Z,27.17
2019-06-10T23:44:12.616Z,27.63
2019-06-10T23:46:42.606Z,24.60
2019-06-10T23:49:12.343Z,22.90
2019-06-10T23:51:42.324Z,21.80
2019-06-10T23:54:12.670Z,20.50
2019-06-10T23:56:42.805Z,18.40
2019-06-10T23:59:12.098Z,22.80
